sensor_id;sensor_type;location;lat;lon;timestamp;pressure;altitude;pressure_sealevel;temperature;humidity
31403;BME280;18039;52.188;21.024;2023-03-13T00:02:31;77261.91;;;-141.45;76.13
31403;BME280;18039;52.188;21.024;2023-03-13T00:05:00;77278.13;;;-141.45;75.83
31403;BME280;18039;52.188;21.024;2023-03-13T00:07:31;77257.84;;;-141.45;76.00
31403;BME280;18039;52.188;21.024;2023-03-13T00:10:00;77253.78;;;-141.45;75.92
31403;BME280;18039;52.188;21.024;2023-03-13T00:12:32;77245.69;;;-141.45;76.15
31403;BME280;18039;52.188;21.024;2023-03-13T00:15:01;77245.69;;;-141.45;75.87
31403;BME280;18039;52.188;21.024;2023-03-13T00:17:32;77245.69;;;-141.45;76.23
31403;BME280;18039;52.188;21.024;2023-03-13T00:19:59;77241.63;;;-141.45;76.18
31403;BME280;18039;52.188;21.024;2023-03-13T00:22:31;77233.53;;;-141.45;76.40
31403;BME280;18039;52.188;21.024;2023-03-13T00:25:00;77229.47;;;-141.45;76.44
31403;BME280;18039;52.188;21.024;2023-03-13T00:27:32;77227.44;;;-141.45;76.63
31403;BME280;18039;52.188;21.024;2023-03-13T00:30:02;77225.41;;;-141.45;76.51
31403;BME280;18039;52.188;21.024;2023-03-13T00:32:32;77225.41;;;-141.45;76.75
31403;BME280;18039;52.188;21.024;2023-03-13T00:35:01;77221.34;;;-141.45;76.51
31403;BME280;18039;52.188;21.024;2023-03-13T00:37:32;77227.44;;;-141.45;76.14
31403;BME280;18039;52.188;21.024;2023-03-13T00:39:59;77229.47;;;-141.45;76.22
31403;BME280;18039;52.188;21.024;2023-03-13T00:42:30;77213.25;;;-141.45;75.42
31403;BME280;18039;52.188;21.024;2023-03-13T00:44:59;77223.38;;;-141.45;75.98
31403;BME280;18039;52.188;21.024;2023-03-13T00:47:32;77217.28;;;-141.45;75.91
31403;BME280;18039;52.188;21.024;2023-03-13T00:50:04;77213.25;;;-141.45;76.15
31403;BME280;18039;52.188;21.024;2023-03-13T00:52:33;77213.25;;;-141.45;76.45
31403;BME280;18039;52.188;21.024;2023-03-13T00:55:02;77201.06;;;-141.45;76.34
31403;BME280;18039;52.188;21.024;2023-03-13T00:57:34;77207.16;;;-141.45;76.41
31403;BME280;18039;52.188;21.024;2023-03-13T01:00:05;77205.13;;;-141.45;76.42
31403;BME280;18039;52.188;21.024;2023-03-13T01:02:41;77195.00;;;-141.45;76.23
31403;BME280;18039;52.188;21.024;2023-03-13T01:05:13;77188.91;;;-141.45;76.33
31403;BME280;18039;52.188;21.024;2023-03-13T01:07:42;77186.88;;;-141.45;76.42
31403;BME280;18039;52.188;21.024;2023-03-13T01:10:14;77172.69;;;-141.45;76.03
31403;BME280;18039;52.188;21.024;2023-03-13T01:12:45;77168.63;;;-141.45;76.15
31403;BME280;18039;52.188;21.024;2023-03-13T01:15:14;77160.53;;;-141.45;76.14
31403;BME280;18039;52.188;21.024;2023-03-13T01:17:45;77150.41;;;-141.45;76.14
31403;BME280;18039;52.188;21.024;2023-03-13T01:20:16;77148.38;;;-141.45;76.04
31403;BME280;18039;52.188;21.024;2023-03-13T01:22:47;77152.41;;;-141.45;75.72
31403;BME280;18039;52.188;21.024;2023-03-13T01:25:18;77144.31;;;-141.45;76.00
31403;BME280;18039;52.188;21.024;2023-03-13T01:27:47;77146.34;;;-141.45;75.93
31403;BME280;18039;52.188;21.024;2023-03-13T01:30:18;77144.31;;;-141.45;75.97
31403;BME280;18039;52.188;21.024;2023-03-13T01:32:48;77144.31;;;-141.45;75.92
31403;BME280;18039;52.188;21.024;2023-03-13T01:35:19;77136.19;;;-141.45;75.71
31403;BME280;18039;52.188;21.024;2023-03-13T01:37:48;77140.25;;;-141.45;75.85
31403;BME280;18039;52.188;21.024;2023-03-13T01:40:19;77136.19;;;-141.45;75.78
31403;BME280;18039;52.188;21.024;2023-03-13T01:42:57;77132.16;;;-141.45;75.44
31403;BME280;18039;52.188;21.024;2023-03-13T01:45:48;77124.03;;;-141.45;75.61
31403;BME280;18039;52.188;21.024;2023-03-13T01:48:32;77119.97;;;-141.45;75.67
31403;BME280;18039;52.188;21.024;2023-03-13T01:51:15;77111.88;;;-141.45;75.77
31403;BME280;18039;52.188;21.024;2023-03-13T01:53:53;77107.81;;;-141.45;75.64
31403;BME280;18039;52.188;21.024;2023-03-13T01:56:35;77095.66;;;-141.45;75.00
31403;BME280;18039;52.188;21.024;2023-03-13T01:59:10;77107.81;;;-141.45;75.15
31403;BME280;18039;52.188;21.024;2023-03-13T02:01:45;77103.75;;;-141.45;74.96
31403;BME280;18039;52.188;21.024;2023-03-13T02:04:17;77099.72;;;-141.45;74.71
31403;BME280;18039;52.188;21.024;2023-03-13T02:06:55;77107.81;;;-141.45;74.37
31403;BME280;18039;52.188;21.024;2023-03-13T02:09:28;77103.75;;;-141.45;74.37
31403;BME280;18039;52.188;21.024;2023-03-13T02:12:08;77099.72;;;-141.45;74.06
31403;BME280;18039;52.188;21.024;2023-03-13T02:14:41;77093.63;;;-141.45;74.18
31403;BME280;18039;52.188;21.024;2023-03-13T02:17:14;77087.53;;;-141.45;74.70
31403;BME280;18039;52.188;21.024;2023-03-13T02:19:46;77089.56;;;-141.45;74.60
31403;BME280;18039;52.188;21.024;2023-03-13T02:27:44;77091.59;;;-141.45;74.75
31403;BME280;18039;52.188;21.024;2023-03-13T02:30:15;77095.66;;;-141.45;75.30
31403;BME280;18039;52.188;21.024;2023-03-13T02:32:46;77093.63;;;-141.45;75.43
31403;BME280;18039;52.188;21.024;2023-03-13T02:35:17;77091.59;;;-141.45;75.51
31403;BME280;18039;52.188;21.024;2023-03-13T02:37:51;77091.59;;;-141.45;75.80
31403;BME280;18039;52.188;21.024;2023-03-13T02:40:31;77091.59;;;-141.45;76.20
31403;BME280;18039;52.188;21.024;2023-03-13T02:43:06;77095.66;;;-141.45;76.59
31403;BME280;18039;52.188;21.024;2023-03-13T02:45:40;77097.69;;;-141.45;77.12
31403;BME280;18039;52.188;21.024;2023-03-13T02:48:11;77095.66;;;-141.45;77.48
31403;BME280;18039;52.188;21.024;2023-03-13T02:50:40;77099.72;;;-141.45;77.84
31403;BME280;18039;52.188;21.024;2023-03-13T02:53:11;77099.72;;;-141.45;77.88
31403;BME280;18039;52.188;21.024;2023-03-13T02:55:42;77091.59;;;-141.45;78.31
31403;BME280;18039;52.188;21.024;2023-03-13T02:58:11;77091.59;;;-141.45;78.65
31403;BME280;18039;52.188;21.024;2023-03-13T03:00:43;77099.72;;;-141.45;78.64
31403;BME280;18039;52.188;21.024;2023-03-13T03:03:18;77099.72;;;-141.45;78.28
31403;BME280;18039;52.188;21.024;2023-03-13T03:05:49;77093.63;;;-141.45;79.37
31403;BME280;18039;52.188;21.024;2023-03-13T03:08:18;77095.66;;;-141.45;79.70
31403;BME280;18039;52.188;21.024;2023-03-13T03:10:49;77095.66;;;-141.45;79.34
31403;BME280;18039;52.188;21.024;2023-03-13T03:13:20;77095.66;;;-141.45;79.44
31403;BME280;18039;52.188;21.024;2023-03-13T03:15:52;77093.63;;;-141.45;79.06
31403;BME280;18039;52.188;21.024;2023-03-13T03:18:21;77099.72;;;-141.45;79.42
31403;BME280;18039;52.188;21.024;2023-03-13T03:20:53;77095.66;;;-141.45;79.71
31403;BME280;18039;52.188;21.024;2023-03-13T03:23:22;77093.63;;;-141.45;80.05
31403;BME280;18039;52.188;21.024;2023-03-13T03:25:53;77083.50;;;-141.45;79.70
31403;BME280;18039;52.188;21.024;2023-03-13T03:28:20;77087.53;;;-141.45;79.64
31403;BME280;18039;52.188;21.024;2023-03-13T03:30:51;77087.53;;;-141.45;79.52
31403;BME280;18039;52.188;21.024;2023-03-13T03:33:24;77091.59;;;-141.45;79.95
31403;BME280;18039;52.188;21.024;2023-03-13T03:36:00;77087.53;;;-141.45;80.64
31403;BME280;18039;52.188;21.024;2023-03-13T03:38:32;77087.53;;;-141.45;80.38
31403;BME280;18039;52.188;21.024;2023-03-13T03:41:02;77087.53;;;-141.45;80.87
31403;BME280;18039;52.188;21.024;2023-03-13T03:43:32;77087.53;;;-141.45;80.24
31403;BME280;18039;52.188;21.024;2023-03-13T03:46:06;77085.50;;;-141.45;80.45
31403;BME280;18039;52.188;21.024;2023-03-13T03:48:36;77083.50;;;-141.45;80.25
31403;BME280;18039;52.188;21.024;2023-03-13T03:51:10;77081.47;;;-141.45;80.19
31403;BME280;18039;52.188;21.024;2023-03-13T03:53:42;77075.38;;;-141.45;80.53
31403;BME280;18039;52.188;21.024;2023-03-13T03:56:13;77071.31;;;-141.45;80.27
31403;BME280;18039;52.188;21.024;2023-03-13T03:58:47;77055.09;;;-141.45;80.03
31403;BME280;18039;52.188;21.024;2023-03-13T04:01:51;77063.22;;;-141.45;79.69
31403;BME280;18039;52.188;21.024;2023-03-13T04:04:25;77063.22;;;-141.45;80.09
31403;BME280;18039;52.188;21.024;2023-03-13T04:07:04;77063.22;;;-141.45;80.15
31403;BME280;18039;52.188;21.024;2023-03-13T04:09:35;77055.09;;;-141.45;80.36
31403;BME280;18039;52.188;21.024;2023-03-13T04:12:09;77047.00;;;-141.45;80.97
31403;BME280;18039;52.188;21.024;2023-03-13T04:14:44;77055.09;;;-141.45;80.69
31403;BME280;18039;52.188;21.024;2023-03-13T04:17:14;77051.06;;;-141.45;81.01
31403;BME280;18039;52.188;21.024;2023-03-13T04:19:46;77047.00;;;-141.45;81.67
31403;BME280;18039;52.188;21.024;2023-03-13T04:22:15;77042.94;;;-141.45;81.99
31403;BME280;18039;52.188;21.024;2023-03-13T04:24:51;77042.94;;;-141.45;82.33
31403;BME280;18039;52.188;21.024;2023-03-13T04:27:21;77038.88;;;-141.45;82.99
31403;BME280;18039;52.188;21.024;2023-03-13T04:29:53;77034.84;;;-141.45;83.10
31403;BME280;18039;52.188;21.024;2023-03-13T04:32:37;77038.88;;;-141.45;83.66
31403;BME280;18039;52.188;21.024;2023-03-13T04:35:43;77034.84;;;-141.45;84.39
31403;BME280;18039;52.188;21.024;2023-03-13T04:38:26;77032.81;;;-141.45;85.42
31403;BME280;18039;52.188;21.024;2023-03-13T04:41:29;77026.72;;;-141.45;86.19
31403;BME280;18039;52.188;21.024;2023-03-13T04:44:21;77018.63;;;-141.45;86.98
31403;BME280;18039;52.188;21.024;2023-03-13T04:47:04;77026.72;;;-141.45;87.37
31403;BME280;18039;52.188;21.024;2023-03-13T04:50:09;77028.75;;;-141.45;88.06
31403;BME280;18039;52.188;21.024;2023-03-13T04:52:48;77034.84;;;-141.45;88.52
31403;BME280;18039;52.188;21.024;2023-03-13T04:55:28;77022.66;;;-141.45;88.88
31403;BME280;18039;52.188;21.024;2023-03-13T04:58:24;77028.75;;;-141.45;88.47
31403;BME280;18039;52.188;21.024;2023-03-13T05:01:14;77022.66;;;-141.45;89.60
31403;BME280;18039;52.188;21.024;2023-03-13T05:04:09;77022.66;;;-141.45;89.54
31403;BME280;18039;52.188;21.024;2023-03-13T05:07:04;77020.63;;;-141.45;90.08
31403;BME280;18039;52.188;21.024;2023-03-13T05:10:01;77014.56;;;-141.45;90.12
31403;BME280;18039;52.188;21.024;2023-03-13T05:13:05;77010.50;;;-141.45;90.08
31403;BME280;18039;52.188;21.024;2023-03-13T05:15:51;77002.41;;;-141.45;90.56
31403;BME280;18039;52.188;21.024;2023-03-13T05:18:45;76986.16;;;-141.45;90.80
31403;BME280;18039;52.188;21.024;2023-03-13T05:21:24;76978.06;;;-141.45;90.37
31403;BME280;18039;52.188;21.024;2023-03-13T05:24:16;76982.13;;;-141.45;91.51
31403;BME280;18039;52.188;21.024;2023-03-13T05:27:17;76978.06;;;-141.45;90.95
31403;BME280;18039;52.188;21.024;2023-03-13T05:30:09;76969.94;;;-141.45;91.41
31403;BME280;18039;52.188;21.024;2023-03-13T05:33:01;76976.03;;;-141.45;91.14
31403;BME280;18039;52.188;21.024;2023-03-13T05:36:00;76969.94;;;-141.45;91.77
31403;BME280;18039;52.188;21.024;2023-03-13T05:38:52;76949.69;;;-141.45;91.73
31403;BME280;18039;52.188;21.024;2023-03-13T05:41:51;76949.69;;;-141.45;92.06
31403;BME280;18039;52.188;21.024;2023-03-13T05:44:43;76949.69;;;-141.45;92.75
31403;BME280;18039;52.188;21.024;2023-03-13T05:47:35;76951.72;;;-141.45;92.61
31403;BME280;18039;52.188;21.024;2023-03-13T05:50:07;76949.69;;;-141.45;93.16
31403;BME280;18039;52.188;21.024;2023-03-13T05:52:55;76953.75;;;-141.45;92.92
31403;BME280;18039;52.188;21.024;2023-03-13T05:55:41;76953.75;;;-141.45;93.13
31403;BME280;18039;52.188;21.024;2023-03-13T05:58:20;76951.72;;;-141.45;93.37
31403;BME280;18039;52.188;21.024;2023-03-13T06:01:07;76957.78;;;-141.45;93.62
31403;BME280;18039;52.188;21.024;2023-03-13T06:03:52;76945.63;;;-141.45;94.38
31403;BME280;18039;52.188;21.024;2023-03-13T06:06:25;76945.63;;;-141.45;94.60
31403;BME280;18039;52.188;21.024;2023-03-13T06:08:58;76941.56;;;-141.45;94.97
31403;BME280;18039;52.188;21.024;2023-03-13T06:11:31;76937.53;;;-141.45;94.93
31403;BME280;18039;52.188;21.024;2023-03-13T06:14:03;76931.44;;;-141.45;95.51
31403;BME280;18039;52.188;21.024;2023-03-13T06:16:43;76929.41;;;-141.45;95.53
31403;BME280;18039;52.188;21.024;2023-03-13T06:19:19;76921.31;;;-141.45;95.42
31403;BME280;18039;52.188;21.024;2023-03-13T06:21:51;76921.31;;;-141.45;95.64
31403;BME280;18039;52.188;21.024;2023-03-13T06:24:20;76915.22;;;-141.45;96.05
31403;BME280;18039;52.188;21.024;2023-03-13T06:26:49;76909.13;;;-141.45;95.88
31403;BME280;18039;52.188;21.024;2023-03-13T06:29:19;76909.13;;;-141.45;96.28
31403;BME280;18039;52.188;21.024;2023-03-13T06:31:50;76913.19;;;-141.45;96.95
31403;BME280;18039;52.188;21.024;2023-03-13T06:34:20;76921.31;;;-141.45;97.43
31403;BME280;18039;52.188;21.024;2023-03-13T06:36:51;76917.25;;;-141.45;97.54
31403;BME280;18039;52.188;21.024;2023-03-13T06:39:23;76913.19;;;-141.45;98.03
31403;BME280;18039;52.188;21.024;2023-03-13T06:41:52;76909.13;;;-141.45;98.10
31403;BME280;18039;52.188;21.024;2023-03-13T06:44:23;76905.09;;;-141.45;97.99
31403;BME280;18039;52.188;21.024;2023-03-13T06:46:52;76901.03;;;-141.45;98.07
31403;BME280;18039;52.188;21.024;2023-03-13T06:49:22;76892.91;;;-141.45;97.85
31403;BME280;18039;52.188;21.024;2023-03-13T06:51:51;76888.88;;;-141.45;98.39
31403;BME280;18039;52.188;21.024;2023-03-13T06:54:22;76888.88;;;-141.45;98.16
31403;BME280;18039;52.188;21.024;2023-03-13T06:56:51;76882.78;;;-141.45;98.16
31403;BME280;18039;52.188;21.024;2023-03-13T06:59:20;76876.69;;;-141.45;98.74
31403;BME280;18039;52.188;21.024;2023-03-13T07:01:51;76880.75;;;-141.45;98.22
31403;BME280;18039;52.188;21.024;2023-03-13T07:04:23;76872.66;;;-141.45;98.24
31403;BME280;18039;52.188;21.024;2023-03-13T07:06:53;76864.53;;;-141.45;98.42
31403;BME280;18039;52.188;21.024;2023-03-13T07:09:25;76858.44;;;-141.45;98.63
31403;BME280;18039;52.188;21.024;2023-03-13T07:11:56;76848.31;;;-141.45;98.27
31403;BME280;18039;52.188;21.024;2023-03-13T07:14:26;76834.13;;;-141.45;98.02
31403;BME280;18039;52.188;21.024;2023-03-13T07:16:57;76824.00;;;-141.45;98.36
31403;BME280;18039;52.188;21.024;2023-03-13T07:19:29;76824.00;;;-141.45;97.87
31403;BME280;18039;52.188;21.024;2023-03-13T07:22:00;76821.97;;;-141.45;97.91
31403;BME280;18039;52.188;21.024;2023-03-13T07:24:31;76811.81;;;-141.45;98.09
31403;BME280;18039;52.188;21.024;2023-03-13T07:27:03;76803.72;;;-141.45;97.81
31403;BME280;18039;52.188;21.024;2023-03-13T07:29:36;76797.63;;;-141.45;97.58
31403;BME280;18039;52.188;21.024;2023-03-13T07:32:05;76799.66;;;-141.45;97.43
31403;BME280;18039;52.188;21.024;2023-03-13T07:34:36;76787.50;;;-141.45;97.21
31403;BME280;18039;52.188;21.024;2023-03-13T07:37:06;76783.44;;;-141.45;97.08
31403;BME280;18039;52.188;21.024;2023-03-13T07:39:37;76771.28;;;-141.45;96.81
31403;BME280;18039;52.188;21.024;2023-03-13T07:42:09;76767.22;;;-141.45;96.81
31403;BME280;18039;52.188;21.024;2023-03-13T07:44:41;76751.00;;;-141.45;97.03
31403;BME280;18039;52.188;21.024;2023-03-13T07:47:12;76714.53;;;-141.45;97.51
31403;BME280;18039;52.188;21.024;2023-03-13T07:49:41;76686.13;;;-141.45;96.72
31403;BME280;18039;52.188;21.024;2023-03-13T07:52:13;76676.00;;;-141.45;96.15
31403;BME280;18039;52.188;21.024;2023-03-13T07:54:43;76669.94;;;-141.45;94.65
31403;BME280;18039;52.188;21.024;2023-03-13T07:57:12;76661.81;;;-141.45;94.79
31403;BME280;18039;52.188;21.024;2023-03-13T07:59:44;76649.66;;;-141.45;95.37
31403;BME280;18039;52.188;21.024;2023-03-13T08:02:15;76637.50;;;-141.45;94.99
31403;BME280;18039;52.188;21.024;2023-03-13T08:04:43;76621.28;;;-141.45;94.92
31403;BME280;18039;52.188;21.024;2023-03-13T08:07:16;76613.16;;;-141.45;93.66
31403;BME280;18039;52.188;21.024;2023-03-13T08:09:46;76609.09;;;-141.45;93.16
31403;BME280;18039;52.188;21.024;2023-03-13T08:12:17;76592.91;;;-141.45;93.56
31403;BME280;18039;52.188;21.024;2023-03-13T08:14:46;76568.56;;;-141.45;93.65
31403;BME280;18039;52.188;21.024;2023-03-13T08:17:18;76552.34;;;-141.45;92.94
31403;BME280;18039;52.188;21.024;2023-03-13T08:19:47;76544.25;;;-141.45;92.73
31403;BME280;18039;52.188;21.024;2023-03-13T08:22:18;76536.13;;;-141.45;92.23
31403;BME280;18039;52.188;21.024;2023-03-13T08:24:47;76532.09;;;-141.45;91.56
31403;BME280;18039;52.188;21.024;2023-03-13T08:27:18;76519.91;;;-141.45;91.45
31403;BME280;18039;52.188;21.024;2023-03-13T08:29:48;76515.88;;;-141.45;90.98
31403;BME280;18039;52.188;21.024;2023-03-13T08:32:15;76515.88;;;-141.45;90.65
31403;BME280;18039;52.188;21.024;2023-03-13T08:34:48;76519.91;;;-141.45;90.77
31403;BME280;18039;52.188;21.024;2023-03-13T08:37:19;76505.72;;;-141.45;90.83
31403;BME280;18039;52.188;21.024;2023-03-13T08:39:48;76487.50;;;-141.45;90.81
31403;BME280;18039;52.188;21.024;2023-03-13T08:42:19;76483.44;;;-141.45;90.55
31403;BME280;18039;52.188;21.024;2023-03-13T08:44:49;76471.28;;;-141.45;90.31
31403;BME280;18039;52.188;21.024;2023-03-13T08:47:20;76463.16;;;-141.45;90.06
31403;BME280;18039;52.188;21.024;2023-03-13T08:49:51;76440.88;;;-141.45;90.14
31403;BME280;18039;52.188;21.024;2023-03-13T08:52:22;76422.63;;;-141.45;89.98
31403;BME280;18039;52.188;21.024;2023-03-13T08:54:51;76394.25;;;-141.45;89.98
31403;BME280;18039;52.188;21.024;2023-03-13T08:57:22;76373.97;;;-141.45;89.79
31403;BME280;18039;52.188;21.024;2023-03-13T08:59:53;76333.44;;;-141.45;89.76
31403;BME280;18039;52.188;21.024;2023-03-13T09:02:24;76301.00;;;-141.45;88.85
31403;BME280;18039;52.188;21.024;2023-03-13T09:04:56;76260.47;;;-141.45;88.08
31403;BME280;18039;52.188;21.024;2023-03-13T09:07:25;76223.97;;;-141.45;87.52
31403;BME280;18039;52.188;21.024;2023-03-13T09:09:56;76183.44;;;-141.45;86.95
31403;BME280;18039;52.188;21.024;2023-03-13T09:12:29;76157.09;;;-141.45;86.80
31403;BME280;18039;52.188;21.024;2023-03-13T09:14:57;76126.69;;;-141.45;84.76
31403;BME280;18039;52.188;21.024;2023-03-13T09:17:28;76094.25;;;-141.45;84.98
31403;BME280;18039;52.188;21.024;2023-03-13T09:19:58;76071.97;;;-141.45;83.62
31403;BME280;18039;52.188;21.024;2023-03-13T09:22:29;76041.56;;;-141.45;83.80
31403;BME280;18039;52.188;21.024;2023-03-13T09:24:58;76017.25;;;-141.45;83.09
31403;BME280;18039;52.188;21.024;2023-03-13T09:27:29;75992.94;;;-141.45;82.39
31403;BME280;18039;52.188;21.024;2023-03-13T09:29:57;75972.66;;;-141.45;81.51
31403;BME280;18039;52.188;21.024;2023-03-13T09:32:28;75964.56;;;-141.45;81.07
31403;BME280;18039;52.188;21.024;2023-03-13T09:34:58;75962.53;;;-141.45;79.85
31403;BME280;18039;52.188;21.024;2023-03-13T09:37:29;75940.22;;;-141.45;80.17
31403;BME280;18039;52.188;21.024;2023-03-13T09:39:58;75924.00;;;-141.45;79.58
31403;BME280;18039;52.188;21.024;2023-03-13T09:42:43;75903.75;;;-141.45;80.12
31403;BME280;18039;52.188;21.024;2023-03-13T09:48:07;75869.28;;;-141.45;79.07
31403;BME280;18039;52.188;21.024;2023-03-13T09:50:55;75842.94;;;-141.45;78.72
31403;BME280;18039;52.188;21.024;2023-03-13T09:53:35;75838.91;;;-141.45;77.72
31403;BME280;18039;52.188;21.024;2023-03-13T09:56:14;75830.78;;;-141.45;77.45
31403;BME280;18039;52.188;21.024;2023-03-13T10:01:53;75806.47;;;-141.45;77.46
31403;BME280;18039;52.188;21.024;2023-03-13T10:04:29;75786.19;;;-141.45;76.92
31403;BME280;18039;52.188;21.024;2023-03-13T10:07:02;75782.16;;;-141.45;76.77
31403;BME280;18039;52.188;21.024;2023-03-13T10:09:34;75770.00;;;-141.45;76.68
31403;BME280;18039;52.188;21.024;2023-03-13T10:20:13;75733.50;;;-141.45;76.09
31403;BME280;18039;52.188;21.024;2023-03-13T10:22:50;75721.34;;;-141.45;76.28
31403;BME280;18039;52.188;21.024;2023-03-13T10:25:27;75705.13;;;-141.45;75.67
31403;BME280;18039;52.188;21.024;2023-03-13T10:28:00;75707.16;;;-141.45;73.78
31403;BME280;18039;52.188;21.024;2023-03-13T10:30:34;75713.25;;;-141.45;74.86
31403;BME280;18039;52.188;21.024;2023-03-13T10:35:42;75729.47;;;-141.45;75.01
31403;BME280;18039;52.188;21.024;2023-03-13T10:38:17;75725.41;;;-141.45;75.28
31403;BME280;18039;52.188;21.024;2023-03-13T10:40:58;75729.47;;;-141.45;75.43
31403;BME280;18039;52.188;21.024;2023-03-13T10:43:30;75715.28;;;-141.45;75.81
31403;BME280;18039;52.188;21.024;2023-03-13T10:45:59;75709.19;;;-141.45;75.95
31403;BME280;18039;52.188;21.024;2023-03-13T10:48:36;75709.19;;;-141.45;76.42
31403;BME280;18039;52.188;21.024;2023-03-13T10:51:20;75688.94;;;-141.45;76.48
31403;BME280;18039;52.188;21.024;2023-03-13T10:53:52;75692.97;;;-141.45;76.67
31403;BME280;18039;52.188;21.024;2023-03-13T10:56:25;75680.81;;;-141.45;76.88
31403;BME280;18039;52.188;21.024;2023-03-13T10:58:56;75668.66;;;-141.45;76.47
31403;BME280;18039;52.188;21.024;2023-03-13T11:01:29;75666.63;;;-141.45;76.80
31403;BME280;18039;52.188;21.024;2023-03-13T11:04:32;75668.66;;;-141.45;76.96
31403;BME280;18039;52.188;21.024;2023-03-13T11:07:15;75664.59;;;-141.45;76.54
31403;BME280;18039;52.188;21.024;2023-03-13T11:10:16;75664.59;;;-141.45;75.65
31403;BME280;18039;52.188;21.024;2023-03-13T11:12:53;75654.47;;;-141.45;75.74
31403;BME280;18039;52.188;21.024;2023-03-13T11:15:43;75636.22;;;-141.45;75.07
31403;BME280;18039;52.188;21.024;2023-03-13T11:18:23;75624.06;;;-141.45;74.81
31403;BME280;18039;52.188;21.024;2023-03-13T11:20:55;75611.91;;;-141.45;74.89
31403;BME280;18039;52.188;21.024;2023-03-13T11:23:47;75601.78;;;-141.45;74.14
31403;BME280;18039;52.188;21.024;2023-03-13T11:26:36;75577.47;;;-141.45;72.86
31403;BME280;18039;52.188;21.024;2023-03-13T11:29:17;75553.16;;;-141.45;73.22
31403;BME280;18039;52.188;21.024;2023-03-13T11:31:55;75526.81;;;-141.45;72.64
31403;BME280;18039;52.188;21.024;2023-03-13T11:34:46;75490.31;;;-141.45;71.96
31403;BME280;18039;52.188;21.024;2023-03-13T11:37:20;75466.00;;;-141.45;70.39
31403;BME280;18039;52.188;21.024;2023-03-13T11:39:59;75449.81;;;-141.45;69.48
31403;BME280;18039;52.188;21.024;2023-03-13T11:46:21;75421.44;;;-141.45;69.29
31403;BME280;18039;52.188;21.024;2023-03-13T11:57:17;75401.16;;;-141.45;68.04
31403;BME280;18039;52.188;21.024;2023-03-13T12:00:30;75386.97;;;-141.45;68.05
31403;BME280;18039;52.188;21.024;2023-03-13T12:03:15;75384.97;;;-141.45;67.67
31403;BME280;18039;52.188;21.024;2023-03-13T12:05:55;75382.94;;;-141.45;67.63
31403;BME280;18039;52.188;21.024;2023-03-13T12:08:27;75409.28;;;-141.45;66.63
31403;BME280;18039;52.188;21.024;2023-03-13T12:11:22;75411.28;;;-141.45;66.62
31403;BME280;18039;52.188;21.024;2023-03-13T12:14:08;75413.31;;;-141.45;67.05
31403;BME280;18039;52.188;21.024;2023-03-13T12:16:58;75409.28;;;-141.45;67.63
31403;BME280;18039;52.188;21.024;2023-03-13T12:19:35;75411.28;;;-141.45;67.56
31403;BME280;18039;52.188;21.024;2023-03-13T12:22:19;75413.31;;;-141.45;68.02
31403;BME280;18039;52.188;21.024;2023-03-13T12:27:53;75429.53;;;-141.45;68.29
31403;BME280;18039;52.188;21.024;2023-03-13T12:30:32;75437.63;;;-141.45;68.71
31403;BME280;18039;52.188;21.024;2023-03-13T12:36:32;75429.53;;;-141.45;70.45
31403;BME280;18039;52.188;21.024;2023-03-13T12:39:13;75437.63;;;-141.45;70.95
31403;BME280;18039;52.188;21.024;2023-03-13T12:41:57;75425.47;;;-141.45;71.23
31403;BME280;18039;52.188;21.024;2023-03-13T12:44:32;75427.50;;;-141.45;72.09
31403;BME280;18039;52.188;21.024;2023-03-13T12:47:09;75445.75;;;-141.45;72.92
31403;BME280;18039;52.188;21.024;2023-03-13T12:49:53;75453.84;;;-141.45;73.10
31403;BME280;18039;52.188;21.024;2023-03-13T13:01:03;75500.47;;;-141.45;78.41
31403;BME280;18039;52.188;21.024;2023-03-13T13:03:48;75506.53;;;-141.45;79.03
31403;BME280;18039;52.188;21.024;2023-03-13T13:06:21;75514.66;;;-141.45;80.00
31403;BME280;18039;52.188;21.024;2023-03-13T13:17:14;75538.97;;;-141.45;83.11
31403;BME280;18039;52.188;21.024;2023-03-13T13:19:46;75538.97;;;-141.45;84.29
31403;BME280;18039;52.188;21.024;2023-03-13T13:32:50;75557.19;;;-141.45;88.69
31403;BME280;18039;52.188;21.024;2023-03-13T13:41:22;75563.28;;;-141.45;90.75
31403;BME280;18039;52.188;21.024;2023-03-13T13:44:14;75579.50;;;-141.45;91.76
31403;BME280;18039;52.188;21.024;2023-03-13T13:46:47;75589.63;;;-141.45;92.93
31403;BME280;18039;52.188;21.024;2023-03-13T13:49:19;75601.78;;;-141.45;93.28
31403;BME280;18039;52.188;21.024;2023-03-13T13:57:19;75609.88;;;-141.45;94.93
31403;BME280;18039;52.188;21.024;2023-03-13T14:03:18;75620.03;;;-141.45;96.13
31403;BME280;18039;52.188;21.024;2023-03-13T14:05:51;75628.13;;;-141.45;96.48
31403;BME280;18039;52.188;21.024;2023-03-13T14:08:29;75620.03;;;-141.45;96.79
31403;BME280;18039;52.188;21.024;2023-03-13T14:13:44;75615.97;;;-141.45;97.30
31403;BME280;18039;52.188;21.024;2023-03-13T14:16:24;75620.03;;;-141.45;97.86
31403;BME280;18039;52.188;21.024;2023-03-13T14:18:54;75609.88;;;-141.45;97.71
31403;BME280;18039;52.188;21.024;2023-03-13T14:21:26;75615.97;;;-141.45;98.17
31403;BME280;18039;52.188;21.024;2023-03-13T14:23:57;75611.91;;;-141.45;98.24
31403;BME280;18039;52.188;21.024;2023-03-13T14:26:28;75615.97;;;-141.45;98.58
31403;BME280;18039;52.188;21.024;2023-03-13T14:29:02;75611.91;;;-141.45;98.63
31403;BME280;18039;52.188;21.024;2023-03-13T14:31:37;75599.75;;;-141.45;98.53
31403;BME280;18039;52.188;21.024;2023-03-13T14:34:12;75605.84;;;-141.45;99.21
31403;BME280;18039;52.188;21.024;2023-03-13T14:36:45;75607.88;;;-141.45;99.07
31403;BME280;18039;52.188;21.024;2023-03-13T14:41:48;75591.66;;;-141.45;99.38